Khalkh-Gol, Mongolia
Current Conditions -  °F | °C
As of 3:00 PM on Saturday 25 Oct 2014 (Local Time) from UIAA Reporting Station
Few Clouds Few Clouds  
Wind Chill: 18°   Ceiling: Unl
Heat Index: 30°   Visibility: 6mi
Dew Point: -2°   Wind: 20mph
Humidity: 25%   Direction: 340°NNW
Pressure: 30.03"   Gusts: NA
Location:  47.62°N, 118.62°E
Report Text: UIAA 250700Z 34009MPS 9999 FEW050 M01/M19 Q1017 TEMPO34008G16MPS RMK QFE704 29CLRD70
Loading
Personal Weather Stations






























Interactive Weather Map
Tropical Storm Tracking
New forecast layout! Learn more

10-Day Weather Forecast

Advertisements
Track Severe Weather on mobile